ESCM

Uppsala Airport

Sweden
METAR ESCM 170120Z AUTO 11006KT 9000 -SN FEW007/// SCT076/// OVC130/// M02/M02 Q1017
Observed Flight Rules
Dec-17 @ 01:20 UTC (13 minutes ago) Visual Flight Rules
Wind Visibility Clouds Conditions
110° at 6 knots 8,996 meters
  • Few at 700' AGL
  • Scattered at 7,600' AGL
  • Overcast at 13,000' AGL
  • Light Snow
Temperatures Readings
Current -2°C / 28°F
Dewpoint -2°C / 28°F
Humidity 100%
Altimeter 30.03" Hg
Pressure 1017 hPa
Elevation 41
METAR ESCM 170120Z AUTO 11006KT 9000 -SN FEW007/// SCT076/// OVC130/// M02/M02 Q1017
Observed Flight Rules
Dec-17 @ 01:20 UTC
(13 minutes ago)
VFR
Wind Visibility
110° at 6 knots 8,996 meters
Clouds
  • Few at 700' AGL
  • Scattered at 7,600' AGL
  • Overcast at 13,000' AGL
Conditions
  • Light Snow
Temperature Dewpoint
-2°C / 28°F -2°C / 28°F
Humidity Altimeter Pressure
100% 30.03" Hg 1017 hPa